sensor_id;sensor_type;location;lat;lon;timestamp;P1;durP1;ratioP1;P2;durP2;ratioP2
21162;SDS011;10739;52.198;20.908;2024-03-02T00:00:09;60.30;;;36.05;;
21162;SDS011;10739;52.198;20.908;2024-03-02T00:02:44;55.45;;;35.05;;
21162;SDS011;10739;52.198;20.908;2024-03-02T00:05:12;59.08;;;35.75;;
21162;SDS011;10739;52.198;20.908;2024-03-02T00:07:53;59.78;;;35.95;;
21162;SDS011;10739;52.198;20.908;2024-03-02T00:10:22;59.65;;;35.88;;
21162;SDS011;10739;52.198;20.908;2024-03-02T00:13:07;57.13;;;36.50;;
21162;SDS011;10739;52.198;20.908;2024-03-02T00:15:46;59.08;;;35.08;;
21162;SDS011;10739;52.198;20.908;2024-03-02T00:18:23;55.80;;;36.00;;
21162;SDS011;10739;52.198;20.908;2024-03-02T00:20:59;57.95;;;35.05;;
21162;SDS011;10739;52.198;20.908;2024-03-02T00:23:29;56.35;;;34.63;;
21162;SDS011;10739;52.198;20.908;2024-03-02T00:25:56;51.05;;;34.05;;
21162;SDS011;10739;52.198;20.908;2024-03-02T00:28:25;52.63;;;34.10;;
21162;SDS011;10739;52.198;20.908;2024-03-02T00:33:43;52.45;;;33.67;;
21162;SDS011;10739;52.198;20.908;2024-03-02T00:36:14;57.15;;;34.33;;
21162;SDS011;10739;52.198;20.908;2024-03-02T00:38:49;50.85;;;32.47;;
21162;SDS011;10739;52.198;20.908;2024-03-02T00:41:22;52.63;;;33.28;;
21162;SDS011;10739;52.198;20.908;2024-03-02T00:43:59;55.63;;;32.55;;
21162;SDS011;10739;52.198;20.908;2024-03-02T00:46:38;50.60;;;33.15;;
21162;SDS011;10739;52.198;20.908;2024-03-02T00:49:12;60.78;;;35.08;;
21162;SDS011;10739;52.198;20.908;2024-03-02T00:51:48;56.28;;;33.88;;
21162;SDS011;10739;52.198;20.908;2024-03-02T00:54:20;54.92;;;33.85;;
21162;SDS011;10739;52.198;20.908;2024-03-02T00:56:51;55.70;;;33.72;;
21162;SDS011;10739;52.198;20.908;2024-03-02T00:59:20;59.35;;;34.72;;
21162;SDS011;10739;52.198;20.908;2024-03-02T01:01:48;49.50;;;33.08;;
21162;SDS011;10739;52.198;20.908;2024-03-02T01:04:15;55.42;;;33.10;;
21162;SDS011;10739;52.198;20.908;2024-03-02T01:06:42;51.58;;;33.65;;
21162;SDS011;10739;52.198;20.908;2024-03-02T01:09:09;61.95;;;35.17;;
21162;SDS011;10739;52.198;20.908;2024-03-02T01:11:37;55.15;;;34.72;;
21162;SDS011;10739;52.198;20.908;2024-03-02T01:14:04;57.95;;;34.58;;
21162;SDS011;10739;52.198;20.908;2024-03-02T01:16:30;57.97;;;35.55;;
21162;SDS011;10739;52.198;20.908;2024-03-02T01:18:56;52.70;;;33.67;;
21162;SDS011;10739;52.198;20.908;2024-03-02T01:21:22;56.25;;;34.47;;
21162;SDS011;10739;52.198;20.908;2024-03-02T01:23:48;57.58;;;34.95;;
21162;SDS011;10739;52.198;20.908;2024-03-02T01:26:14;56.55;;;34.90;;
21162;SDS011;10739;52.198;20.908;2024-03-02T01:28:41;56.55;;;33.47;;
21162;SDS011;10739;52.198;20.908;2024-03-02T01:31:07;59.55;;;36.05;;
21162;SDS011;10739;52.198;20.908;2024-03-02T01:33:33;57.40;;;36.15;;
21162;SDS011;10739;52.198;20.908;2024-03-02T01:35:59;56.05;;;35.53;;
21162;SDS011;10739;52.198;20.908;2024-03-02T01:38:25;61.13;;;37.30;;
21162;SDS011;10739;52.198;20.908;2024-03-02T01:40:51;62.78;;;36.65;;
21162;SDS011;10739;52.198;20.908;2024-03-02T01:43:17;64.05;;;36.67;;
21162;SDS011;10739;52.198;20.908;2024-03-02T01:45:43;57.65;;;35.47;;
21162;SDS011;10739;52.198;20.908;2024-03-02T01:48:10;57.65;;;35.63;;
21162;SDS011;10739;52.198;20.908;2024-03-02T01:50:36;59.83;;;35.40;;
21162;SDS011;10739;52.198;20.908;2024-03-02T01:53:03;60.15;;;36.47;;
21162;SDS011;10739;52.198;20.908;2024-03-02T01:55:29;59.75;;;35.28;;
21162;SDS011;10739;52.198;20.908;2024-03-02T01:57:56;61.40;;;35.65;;
21162;SDS011;10739;52.198;20.908;2024-03-02T02:00:23;59.05;;;36.00;;
21162;SDS011;10739;52.198;20.908;2024-03-02T02:02:51;57.03;;;35.38;;
21162;SDS011;10739;52.198;20.908;2024-03-02T02:05:18;58.53;;;35.40;;
21162;SDS011;10739;52.198;20.908;2024-03-02T02:07:44;62.25;;;36.30;;
21162;SDS011;10739;52.198;20.908;2024-03-02T02:10:11;61.90;;;36.90;;
21162;SDS011;10739;52.198;20.908;2024-03-02T02:12:38;57.80;;;35.25;;
21162;SDS011;10739;52.198;20.908;2024-03-02T02:15:21;68.50;;;36.60;;
21162;SDS011;10739;52.198;20.908;2024-03-02T02:17:49;60.08;;;35.33;;
21162;SDS011;10739;52.198;20.908;2024-03-02T02:20:15;55.08;;;34.92;;
21162;SDS011;10739;52.198;20.908;2024-03-02T02:22:52;60.92;;;36.67;;
21162;SDS011;10739;52.198;20.908;2024-03-02T02:25:26;58.33;;;35.97;;
21162;SDS011;10739;52.198;20.908;2024-03-02T02:27:54;62.22;;;35.10;;
21162;SDS011;10739;52.198;20.908;2024-03-02T02:30:25;59.10;;;35.58;;
21162;SDS011;10739;52.198;20.908;2024-03-02T02:32:53;57.17;;;35.03;;
21162;SDS011;10739;52.198;20.908;2024-03-02T02:35:20;60.80;;;36.58;;
21162;SDS011;10739;52.198;20.908;2024-03-02T02:37:46;58.78;;;36.22;;
21162;SDS011;10739;52.198;20.908;2024-03-02T02:40:14;58.65;;;34.65;;
21162;SDS011;10739;52.198;20.908;2024-03-02T02:42:41;62.45;;;38.03;;
21162;SDS011;10739;52.198;20.908;2024-03-02T02:45:08;58.53;;;35.35;;
21162;SDS011;10739;52.198;20.908;2024-03-02T02:47:34;60.17;;;36.53;;
21162;SDS011;10739;52.198;20.908;2024-03-02T02:50:01;62.78;;;35.72;;
21162;SDS011;10739;52.198;20.908;2024-03-02T02:52:35;61.13;;;36.33;;
21162;SDS011;10739;52.198;20.908;2024-03-02T02:55:05;59.55;;;34.83;;
21162;SDS011;10739;52.198;20.908;2024-03-02T02:57:34;57.33;;;37.22;;
21162;SDS011;10739;52.198;20.908;2024-03-02T03:00:10;58.05;;;36.35;;
21162;SDS011;10739;52.198;20.908;2024-03-02T03:02:44;63.53;;;36.40;;
21162;SDS011;10739;52.198;20.908;2024-03-02T03:05:14;53.40;;;35.10;;
21162;SDS011;10739;52.198;20.908;2024-03-02T03:07:41;65.70;;;37.25;;
21162;SDS011;10739;52.198;20.908;2024-03-02T03:10:09;59.42;;;35.55;;
21162;SDS011;10739;52.198;20.908;2024-03-02T03:12:36;63.55;;;37.20;;
21162;SDS011;10739;52.198;20.908;2024-03-02T03:15:03;57.22;;;35.40;;
21162;SDS011;10739;52.198;20.908;2024-03-02T03:17:29;57.53;;;36.50;;
21162;SDS011;10739;52.198;20.908;2024-03-02T03:19:56;54.88;;;34.70;;
21162;SDS011;10739;52.198;20.908;2024-03-02T03:22:22;62.92;;;34.47;;
21162;SDS011;10739;52.198;20.908;2024-03-02T03:24:48;54.20;;;33.58;;
21162;SDS011;10739;52.198;20.908;2024-03-02T03:27:15;54.67;;;33.55;;
21162;SDS011;10739;52.198;20.908;2024-03-02T03:29:41;59.92;;;35.13;;
21162;SDS011;10739;52.198;20.908;2024-03-02T03:32:07;54.30;;;33.53;;
21162;SDS011;10739;52.198;20.908;2024-03-02T03:34:34;56.80;;;35.40;;
21162;SDS011;10739;52.198;20.908;2024-03-02T03:37:00;59.13;;;35.28;;
21162;SDS011;10739;52.198;20.908;2024-03-02T03:39:27;59.25;;;36.03;;
21162;SDS011;10739;52.198;20.908;2024-03-02T03:41:53;58.45;;;35.85;;
21162;SDS011;10739;52.198;20.908;2024-03-02T03:44:20;56.92;;;35.55;;
21162;SDS011;10739;52.198;20.908;2024-03-02T03:46:46;54.28;;;33.85;;
21162;SDS011;10739;52.198;20.908;2024-03-02T03:49:12;58.33;;;35.92;;
21162;SDS011;10739;52.198;20.908;2024-03-02T03:51:38;60.25;;;35.60;;
21162;SDS011;10739;52.198;20.908;2024-03-02T03:54:04;55.47;;;33.47;;
21162;SDS011;10739;52.198;20.908;2024-03-02T03:56:30;57.25;;;34.60;;
21162;SDS011;10739;52.198;20.908;2024-03-02T03:58:57;51.78;;;33.33;;
21162;SDS011;10739;52.198;20.908;2024-03-02T04:01:25;60.08;;;36.22;;
21162;SDS011;10739;52.198;20.908;2024-03-02T04:03:51;57.03;;;35.33;;
21162;SDS011;10739;52.198;20.908;2024-03-02T04:06:17;52.90;;;31.60;;
21162;SDS011;10739;52.198;20.908;2024-03-02T04:08:43;56.75;;;32.35;;
21162;SDS011;10739;52.198;20.908;2024-03-02T04:11:09;53.30;;;34.40;;
21162;SDS011;10739;52.198;20.908;2024-03-02T04:13:35;53.15;;;34.38;;
21162;SDS011;10739;52.198;20.908;2024-03-02T04:16:02;54.97;;;33.97;;
21162;SDS011;10739;52.198;20.908;2024-03-02T04:18:30;52.17;;;34.13;;
21162;SDS011;10739;52.198;20.908;2024-03-02T04:20:57;57.83;;;32.55;;
21162;SDS011;10739;52.198;20.908;2024-03-02T04:23:26;60.03;;;34.40;;
21162;SDS011;10739;52.198;20.908;2024-03-02T04:25:52;54.85;;;34.03;;
21162;SDS011;10739;52.198;20.908;2024-03-02T04:28:19;60.28;;;35.72;;
21162;SDS011;10739;52.198;20.908;2024-03-02T04:30:45;58.30;;;33.50;;
21162;SDS011;10739;52.198;20.908;2024-03-02T04:33:11;60.13;;;34.65;;
21162;SDS011;10739;52.198;20.908;2024-03-02T04:35:37;59.20;;;33.90;;
21162;SDS011;10739;52.198;20.908;2024-03-02T04:38:03;51.97;;;32.20;;
21162;SDS011;10739;52.198;20.908;2024-03-02T04:40:30;57.85;;;33.58;;
21162;SDS011;10739;52.198;20.908;2024-03-02T04:42:56;56.95;;;35.42;;
21162;SDS011;10739;52.198;20.908;2024-03-02T04:45:23;60.50;;;35.40;;
21162;SDS011;10739;52.198;20.908;2024-03-02T04:47:49;60.60;;;35.72;;
21162;SDS011;10739;52.198;20.908;2024-03-02T04:50:15;53.40;;;33.63;;
21162;SDS011;10739;52.198;20.908;2024-03-02T04:52:41;62.92;;;36.35;;
21162;SDS011;10739;52.198;20.908;2024-03-02T04:55:07;60.97;;;35.28;;
21162;SDS011;10739;52.198;20.908;2024-03-02T04:57:53;57.70;;;33.70;;
21162;SDS011;10739;52.198;20.908;2024-03-02T05:00:20;63.17;;;33.63;;
21162;SDS011;10739;52.198;20.908;2024-03-02T05:02:46;64.65;;;36.05;;
21162;SDS011;10739;52.198;20.908;2024-03-02T05:05:12;59.30;;;33.00;;
21162;SDS011;10739;52.198;20.908;2024-03-02T05:07:41;62.85;;;35.10;;
21162;SDS011;10739;52.198;20.908;2024-03-02T05:10:09;60.80;;;34.58;;
21162;SDS011;10739;52.198;20.908;2024-03-02T05:12:37;60.33;;;34.75;;
21162;SDS011;10739;52.198;20.908;2024-03-02T05:15:09;60.38;;;36.00;;
21162;SDS011;10739;52.198;20.908;2024-03-02T05:17:37;58.92;;;34.40;;
21162;SDS011;10739;52.198;20.908;2024-03-02T05:20:08;60.08;;;33.08;;
21162;SDS011;10739;52.198;20.908;2024-03-02T05:22:35;62.03;;;35.78;;
21162;SDS011;10739;52.198;20.908;2024-03-02T05:25:05;61.40;;;35.08;;
21162;SDS011;10739;52.198;20.908;2024-03-02T05:27:32;57.78;;;34.22;;
21162;SDS011;10739;52.198;20.908;2024-03-02T05:29:59;61.08;;;33.47;;
21162;SDS011;10739;52.198;20.908;2024-03-02T05:32:25;54.60;;;31.63;;
21162;SDS011;10739;52.198;20.908;2024-03-02T05:34:51;62.53;;;32.00;;
21162;SDS011;10739;52.198;20.908;2024-03-02T05:37:17;62.97;;;33.10;;
21162;SDS011;10739;52.198;20.908;2024-03-02T05:39:44;57.75;;;33.50;;
21162;SDS011;10739;52.198;20.908;2024-03-02T05:42:10;60.33;;;32.00;;
21162;SDS011;10739;52.198;20.908;2024-03-02T05:44:36;53.92;;;31.42;;
21162;SDS011;10739;52.198;20.908;2024-03-02T05:47:02;53.83;;;31.75;;
21162;SDS011;10739;52.198;20.908;2024-03-02T05:49:29;55.50;;;32.05;;
21162;SDS011;10739;52.198;20.908;2024-03-02T05:51:56;54.05;;;31.30;;
21162;SDS011;10739;52.198;20.908;2024-03-02T05:54:22;50.80;;;31.08;;
21162;SDS011;10739;52.198;20.908;2024-03-02T05:56:48;53.65;;;31.02;;
21162;SDS011;10739;52.198;20.908;2024-03-02T05:59:14;54.08;;;30.77;;
21162;SDS011;10739;52.198;20.908;2024-03-02T06:01:42;53.60;;;30.27;;
21162;SDS011;10739;52.198;20.908;2024-03-02T06:04:09;51.17;;;31.27;;
21162;SDS011;10739;52.198;20.908;2024-03-02T06:06:39;59.58;;;31.42;;
21162;SDS011;10739;52.198;20.908;2024-03-02T06:09:06;51.03;;;31.23;;
21162;SDS011;10739;52.198;20.908;2024-03-02T06:11:39;53.80;;;31.33;;
21162;SDS011;10739;52.198;20.908;2024-03-02T06:14:07;62.28;;;32.92;;
21162;SDS011;10739;52.198;20.908;2024-03-02T06:16:34;55.10;;;31.85;;
21162;SDS011;10739;52.198;20.908;2024-03-02T06:19:00;52.00;;;30.58;;
21162;SDS011;10739;52.198;20.908;2024-03-02T06:21:27;50.45;;;30.63;;
21162;SDS011;10739;52.198;20.908;2024-03-02T06:23:54;51.40;;;31.35;;
21162;SDS011;10739;52.198;20.908;2024-03-02T06:26:21;55.05;;;32.42;;
21162;SDS011;10739;52.198;20.908;2024-03-02T06:28:48;53.35;;;30.55;;
21162;SDS011;10739;52.198;20.908;2024-03-02T06:31:14;52.90;;;30.90;;
21162;SDS011;10739;52.198;20.908;2024-03-02T06:33:40;55.40;;;30.90;;
21162;SDS011;10739;52.198;20.908;2024-03-02T06:36:07;50.53;;;30.45;;
21162;SDS011;10739;52.198;20.908;2024-03-02T06:38:37;55.75;;;30.52;;
21162;SDS011;10739;52.198;20.908;2024-03-02T06:41:04;53.50;;;30.67;;
21162;SDS011;10739;52.198;20.908;2024-03-02T06:43:31;52.85;;;30.30;;
21162;SDS011;10739;52.198;20.908;2024-03-02T06:45:57;51.47;;;31.08;;
21162;SDS011;10739;52.198;20.908;2024-03-02T06:48:23;53.80;;;29.48;;
21162;SDS011;10739;52.198;20.908;2024-03-02T06:50:49;55.58;;;30.42;;
21162;SDS011;10739;52.198;20.908;2024-03-02T06:53:17;55.38;;;30.30;;
21162;SDS011;10739;52.198;20.908;2024-03-02T06:55:45;54.30;;;29.98;;
21162;SDS011;10739;52.198;20.908;2024-03-02T06:58:12;51.25;;;28.20;;
21162;SDS011;10739;52.198;20.908;2024-03-02T07:00:40;51.72;;;29.90;;
21162;SDS011;10739;52.198;20.908;2024-03-02T07:03:07;49.60;;;27.98;;
21162;SDS011;10739;52.198;20.908;2024-03-02T07:05:34;48.28;;;28.10;;
21162;SDS011;10739;52.198;20.908;2024-03-02T07:08:00;55.67;;;30.02;;
21162;SDS011;10739;52.198;20.908;2024-03-02T07:10:27;47.10;;;27.17;;
21162;SDS011;10739;52.198;20.908;2024-03-02T07:12:54;45.30;;;26.80;;
21162;SDS011;10739;52.198;20.908;2024-03-02T07:15:20;45.63;;;26.55;;
21162;SDS011;10739;52.198;20.908;2024-03-02T07:18:02;45.17;;;25.93;;
21162;SDS011;10739;52.198;20.908;2024-03-02T07:20:29;46.17;;;25.80;;
21162;SDS011;10739;52.198;20.908;2024-03-02T07:22:56;46.38;;;25.77;;
21162;SDS011;10739;52.198;20.908;2024-03-02T07:25:22;41.20;;;25.13;;
21162;SDS011;10739;52.198;20.908;2024-03-02T07:27:48;46.78;;;26.02;;
21162;SDS011;10739;52.198;20.908;2024-03-02T07:30:15;39.58;;;23.38;;
21162;SDS011;10739;52.198;20.908;2024-03-02T07:32:42;40.83;;;24.90;;
21162;SDS011;10739;52.198;20.908;2024-03-02T07:35:13;48.03;;;26.30;;
21162;SDS011;10739;52.198;20.908;2024-03-02T07:37:43;47.22;;;26.02;;
21162;SDS011;10739;52.198;20.908;2024-03-02T07:40:10;42.17;;;24.80;;
21162;SDS011;10739;52.198;20.908;2024-03-02T07:42:40;42.47;;;24.27;;
21162;SDS011;10739;52.198;20.908;2024-03-02T07:45:06;46.30;;;25.55;;
21162;SDS011;10739;52.198;20.908;2024-03-02T07:47:34;39.38;;;23.52;;
21162;SDS011;10739;52.198;20.908;2024-03-02T07:50:00;43.17;;;24.42;;
21162;SDS011;10739;52.198;20.908;2024-03-02T07:52:26;41.20;;;24.75;;
21162;SDS011;10739;52.198;20.908;2024-03-02T07:54:52;40.55;;;23.73;;
21162;SDS011;10739;52.198;20.908;2024-03-02T07:57:19;42.00;;;23.80;;
21162;SDS011;10739;52.198;20.908;2024-03-02T07:59:46;38.33;;;23.30;;
21162;SDS011;10739;52.198;20.908;2024-03-02T08:02:12;42.05;;;23.15;;
21162;SDS011;10739;52.198;20.908;2024-03-02T08:04:38;43.55;;;24.50;;
21162;SDS011;10739;52.198;20.908;2024-03-02T08:07:06;42.22;;;23.65;;
21162;SDS011;10739;52.198;20.908;2024-03-02T08:09:32;43.70;;;24.33;;
21162;SDS011;10739;52.198;20.908;2024-03-02T08:11:58;41.80;;;23.45;;
21162;SDS011;10739;52.198;20.908;2024-03-02T08:14:24;44.35;;;24.95;;
21162;SDS011;10739;52.198;20.908;2024-03-02T08:16:51;41.60;;;23.45;;
21162;SDS011;10739;52.198;20.908;2024-03-02T08:19:17;40.33;;;23.13;;
21162;SDS011;10739;52.198;20.908;2024-03-02T08:21:43;41.80;;;23.73;;
21162;SDS011;10739;52.198;20.908;2024-03-02T08:24:10;38.70;;;23.63;;
21162;SDS011;10739;52.198;20.908;2024-03-02T08:26:36;41.47;;;23.30;;
21162;SDS011;10739;52.198;20.908;2024-03-02T08:29:03;40.83;;;24.75;;
21162;SDS011;10739;52.198;20.908;2024-03-02T08:31:29;40.47;;;24.42;;
21162;SDS011;10739;52.198;20.908;2024-03-02T08:33:56;41.53;;;24.38;;
21162;SDS011;10739;52.198;20.908;2024-03-02T08:36:23;42.22;;;24.17;;
21162;SDS011;10739;52.198;20.908;2024-03-02T08:38:49;38.92;;;23.90;;
21162;SDS011;10739;52.198;20.908;2024-03-02T08:41:16;46.13;;;24.58;;
21162;SDS011;10739;52.198;20.908;2024-03-02T08:43:43;42.00;;;24.42;;
21162;SDS011;10739;52.198;20.908;2024-03-02T08:46:10;39.53;;;23.88;;
21162;SDS011;10739;52.198;20.908;2024-03-02T08:48:36;44.25;;;25.00;;
21162;SDS011;10739;52.198;20.908;2024-03-02T08:51:02;40.20;;;24.83;;
21162;SDS011;10739;52.198;20.908;2024-03-02T08:53:31;43.45;;;24.58;;
21162;SDS011;10739;52.198;20.908;2024-03-02T08:55:57;42.25;;;23.88;;
21162;SDS011;10739;52.198;20.908;2024-03-02T08:58:24;43.92;;;25.90;;
21162;SDS011;10739;52.198;20.908;2024-03-02T09:00:50;43.20;;;24.52;;
21162;SDS011;10739;52.198;20.908;2024-03-02T09:03:16;40.65;;;22.88;;
21162;SDS011;10739;52.198;20.908;2024-03-02T09:05:43;44.38;;;24.77;;
21162;SDS011;10739;52.198;20.908;2024-03-02T09:08:09;41.90;;;24.48;;
21162;SDS011;10739;52.198;20.908;2024-03-02T09:10:35;47.58;;;24.92;;
21162;SDS011;10739;52.198;20.908;2024-03-02T09:13:01;43.40;;;23.52;;
21162;SDS011;10739;52.198;20.908;2024-03-02T09:15:28;46.85;;;25.33;;
21162;SDS011;10739;52.198;20.908;2024-03-02T09:17:54;41.67;;;25.77;;
21162;SDS011;10739;52.198;20.908;2024-03-02T09:20:20;41.78;;;23.55;;
21162;SDS011;10739;52.198;20.908;2024-03-02T09:22:46;42.63;;;23.95;;
21162;SDS011;10739;52.198;20.908;2024-03-02T09:25:14;41.20;;;23.50;;
21162;SDS011;10739;52.198;20.908;2024-03-02T09:27:41;40.17;;;24.38;;
21162;SDS011;10739;52.198;20.908;2024-03-02T09:30:07;46.03;;;26.05;;
21162;SDS011;10739;52.198;20.908;2024-03-02T09:32:35;43.38;;;24.67;;
21162;SDS011;10739;52.198;20.908;2024-03-02T09:35:03;39.22;;;23.77;;
21162;SDS011;10739;52.198;20.908;2024-03-02T09:37:30;39.60;;;24.30;;
21162;SDS011;10739;52.198;20.908;2024-03-02T09:39:56;43.22;;;24.05;;
21162;SDS011;10739;52.198;20.908;2024-03-02T09:42:22;46.33;;;25.05;;
21162;SDS011;10739;52.198;20.908;2024-03-02T09:44:50;42.33;;;23.67;;
21162;SDS011;10739;52.198;20.908;2024-03-02T09:47:17;47.47;;;24.63;;
21162;SDS011;10739;52.198;20.908;2024-03-02T09:49:43;42.13;;;23.08;;
21162;SDS011;10739;52.198;20.908;2024-03-02T09:52:10;39.25;;;22.98;;
21162;SDS011;10739;52.198;20.908;2024-03-02T09:54:36;41.47;;;24.60;;
21162;SDS011;10739;52.198;20.908;2024-03-02T09:57:02;41.20;;;22.90;;
21162;SDS011;10739;52.198;20.908;2024-03-02T09:59:28;42.60;;;23.27;;
21162;SDS011;10739;52.198;20.908;2024-03-02T10:01:58;39.08;;;23.73;;
21162;SDS011;10739;52.198;20.908;2024-03-02T10:04:29;40.90;;;23.45;;
21162;SDS011;10739;52.198;20.908;2024-03-02T10:09:38;41.80;;;22.02;;
21162;SDS011;10739;52.198;20.908;2024-03-02T10:12:05;37.90;;;21.27;;
21162;SDS011;10739;52.198;20.908;2024-03-02T10:14:34;45.13;;;22.25;;
21162;SDS011;10739;52.198;20.908;2024-03-02T10:17:04;40.45;;;22.60;;
21162;SDS011;10739;52.198;20.908;2024-03-02T10:19:35;44.13;;;22.90;;
21162;SDS011;10739;52.198;20.908;2024-03-02T10:22:06;38.17;;;22.02;;
21162;SDS011;10739;52.198;20.908;2024-03-02T10:24:43;36.78;;;22.17;;
21162;SDS011;10739;52.198;20.908;2024-03-02T10:27:15;35.88;;;20.33;;
21162;SDS011;10739;52.198;20.908;2024-03-02T10:29:45;37.58;;;21.88;;
21162;SDS011;10739;52.198;20.908;2024-03-02T10:32:13;34.97;;;21.10;;
21162;SDS011;10739;52.198;20.908;2024-03-02T10:34:40;40.72;;;21.95;;
21162;SDS011;10739;52.198;20.908;2024-03-02T10:37:08;36.25;;;21.63;;
21162;SDS011;10739;52.198;20.908;2024-03-02T10:39:35;39.97;;;21.75;;
21162;SDS011;10739;52.198;20.908;2024-03-02T10:42:04;36.97;;;21.73;;
21162;SDS011;10739;52.198;20.908;2024-03-02T10:44:32;33.67;;;20.50;;
21162;SDS011;10739;52.198;20.908;2024-03-02T10:47:04;37.67;;;21.38;;
21162;SDS011;10739;52.198;20.908;2024-03-02T10:49:31;40.28;;;21.95;;
21162;SDS011;10739;52.198;20.908;2024-03-02T10:51:58;41.10;;;21.70;;
21162;SDS011;10739;52.198;20.908;2024-03-02T10:54:25;35.83;;;21.50;;
21162;SDS011;10739;52.198;20.908;2024-03-02T10:56:55;35.95;;;21.17;;
21162;SDS011;10739;52.198;20.908;2024-03-02T10:59:32;35.58;;;20.55;;
21162;SDS011;10739;52.198;20.908;2024-03-02T11:02:04;38.90;;;20.80;;
21162;SDS011;10739;52.198;20.908;2024-03-02T11:04:34;34.45;;;20.65;;
21162;SDS011;10739;52.198;20.908;2024-03-02T11:07:06;42.90;;;21.83;;
21162;SDS011;10739;52.198;20.908;2024-03-02T11:09:37;36.88;;;22.45;;
21162;SDS011;10739;52.198;20.908;2024-03-02T11:12:30;37.08;;;21.63;;
21162;SDS011;10739;52.198;20.908;2024-03-02T11:15:09;32.38;;;21.40;;
21162;SDS011;10739;52.198;20.908;2024-03-02T11:17:40;39.17;;;22.27;;
21162;SDS011;10739;52.198;20.908;2024-03-02T11:20:08;37.38;;;21.42;;
21162;SDS011;10739;52.198;20.908;2024-03-02T11:22:36;34.65;;;20.60;;
21162;SDS011;10739;52.198;20.908;2024-03-02T11:25:02;40.25;;;22.55;;
21162;SDS011;10739;52.198;20.908;2024-03-02T11:33:01;45.35;;;22.67;;
21162;SDS011;10739;52.198;20.908;2024-03-02T11:35:34;32.85;;;22.08;;
21162;SDS011;10739;52.198;20.908;2024-03-02T11:38:06;39.45;;;22.90;;
21162;SDS011;10739;52.198;20.908;2024-03-02T11:40:32;33.03;;;22.13;;
21162;SDS011;10739;52.198;20.908;2024-03-02T11:42:59;40.28;;;23.83;;
21162;SDS011;10739;52.198;20.908;2024-03-02T11:45:31;40.28;;;23.48;;
21162;SDS011;10739;52.198;20.908;2024-03-02T11:47:58;37.95;;;23.33;;
21162;SDS011;10739;52.198;20.908;2024-03-02T11:53:27;42.15;;;24.02;;
21162;SDS011;10739;52.198;20.908;2024-03-02T11:55:55;39.58;;;25.90;;
21162;SDS011;10739;52.198;20.908;2024-03-02T11:58:22;45.50;;;26.40;;
21162;SDS011;10739;52.198;20.908;2024-03-02T12:00:55;40.33;;;25.85;;
21162;SDS011;10739;52.198;20.908;2024-03-02T12:03:25;42.10;;;24.65;;
21162;SDS011;10739;52.198;20.908;2024-03-02T12:05:52;43.38;;;26.58;;
21162;SDS011;10739;52.198;20.908;2024-03-02T12:08:21;47.33;;;26.85;;
21162;SDS011;10739;52.198;20.908;2024-03-02T12:10:58;38.28;;;26.02;;
21162;SDS011;10739;52.198;20.908;2024-03-02T12:13:27;41.92;;;26.48;;
21162;SDS011;10739;52.198;20.908;2024-03-02T12:15:54;49.22;;;28.02;;
21162;SDS011;10739;52.198;20.908;2024-03-02T12:18:21;46.55;;;28.05;;
21162;SDS011;10739;52.198;20.908;2024-03-02T12:20:48;43.65;;;27.45;;
21162;SDS011;10739;52.198;20.908;2024-03-02T12:23:22;45.65;;;30.13;;
21162;SDS011;10739;52.198;20.908;2024-03-02T12:25:48;45.05;;;30.27;;
21162;SDS011;10739;52.198;20.908;2024-03-02T12:28:15;52.58;;;29.20;;
21162;SDS011;10739;52.198;20.908;2024-03-02T12:30:42;46.15;;;30.35;;
21162;SDS011;10739;52.198;20.908;2024-03-02T12:33:10;47.15;;;30.55;;
21162;SDS011;10739;52.198;20.908;2024-03-02T12:35:37;50.83;;;30.98;;
21162;SDS011;10739;52.198;20.908;2024-03-02T12:38:03;48.92;;;30.88;;
21162;SDS011;10739;52.198;20.908;2024-03-02T12:40:30;51.88;;;31.50;;
21162;SDS011;10739;52.198;20.908;2024-03-02T12:42:57;49.97;;;31.80;;
21162;SDS011;10739;52.198;20.908;2024-03-02T12:45:23;57.78;;;32.47;;
21162;SDS011;10739;52.198;20.908;2024-03-02T12:47:50;49.17;;;32.50;;
21162;SDS011;10739;52.198;20.908;2024-03-02T12:50:17;49.92;;;32.95;;
21162;SDS011;10739;52.198;20.908;2024-03-02T12:52:50;48.90;;;32.35;;
21162;SDS011;10739;52.198;20.908;2024-03-02T12:55:22;52.28;;;32.08;;
21162;SDS011;10739;52.198;20.908;2024-03-02T12:57:50;53.83;;;33.20;;
21162;SDS011;10739;52.198;20.908;2024-03-02T13:00:18;52.10;;;33.50;;
21162;SDS011;10739;52.198;20.908;2024-03-02T13:02:46;51.03;;;33.85;;
21162;SDS011;10739;52.198;20.908;2024-03-02T13:05:13;49.00;;;31.63;;
21162;SDS011;10739;52.198;20.908;2024-03-02T13:07:39;45.28;;;30.65;;
21162;SDS011;10739;52.198;20.908;2024-03-02T13:10:06;52.75;;;31.30;;
21162;SDS011;10739;52.198;20.908;2024-03-02T13:12:34;44.58;;;31.63;;
21162;SDS011;10739;52.198;20.908;2024-03-02T13:15:02;45.33;;;30.08;;
21162;SDS011;10739;52.198;20.908;2024-03-02T13:17:30;46.70;;;30.15;;
21162;SDS011;10739;52.198;20.908;2024-03-02T13:19:58;43.08;;;31.48;;
21162;SDS011;10739;52.198;20.908;2024-03-02T13:22:25;43.38;;;30.35;;
21162;SDS011;10739;52.198;20.908;2024-03-02T13:24:52;43.50;;;30.35;;
21162;SDS011;10739;52.198;20.908;2024-03-02T13:27:22;44.85;;;30.67;;
21162;SDS011;10739;52.198;20.908;2024-03-02T13:29:49;47.33;;;31.25;;
21162;SDS011;10739;52.198;20.908;2024-03-02T13:32:15;48.15;;;32.25;;
21162;SDS011;10739;52.198;20.908;2024-03-02T13:34:42;50.13;;;30.75;;
21162;SDS011;10739;52.198;20.908;2024-03-02T13:37:08;44.38;;;29.70;;
21162;SDS011;10739;52.198;20.908;2024-03-02T13:39:35;49.08;;;31.73;;
21162;SDS011;10739;52.198;20.908;2024-03-02T13:42:11;47.83;;;30.40;;
21162;SDS011;10739;52.198;20.908;2024-03-02T13:44:40;54.05;;;31.58;;
21162;SDS011;10739;52.198;20.908;2024-03-02T13:47:12;47.08;;;29.33;;
21162;SDS011;10739;52.198;20.908;2024-03-02T13:49:38;41.75;;;29.35;;
21162;SDS011;10739;52.198;20.908;2024-03-02T13:52:08;46.38;;;30.15;;
21162;SDS011;10739;52.198;20.908;2024-03-02T13:54:44;45.10;;;28.73;;
21162;SDS011;10739;52.198;20.908;2024-03-02T13:57:12;41.72;;;30.15;;
21162;SDS011;10739;52.198;20.908;2024-03-02T13:59:39;46.80;;;31.42;;
21162;SDS011;10739;52.198;20.908;2024-03-02T14:02:08;51.78;;;31.35;;
21162;SDS011;10739;52.198;20.908;2024-03-02T14:04:35;47.70;;;31.60;;
21162;SDS011;10739;52.198;20.908;2024-03-02T14:07:02;52.60;;;32.30;;
21162;SDS011;10739;52.198;20.908;2024-03-02T14:09:29;46.67;;;30.50;;
21162;SDS011;10739;52.198;20.908;2024-03-02T14:11:56;50.70;;;32.63;;
21162;SDS011;10739;52.198;20.908;2024-03-02T14:14:22;45.90;;;32.50;;
21162;SDS011;10739;52.198;20.908;2024-03-02T14:16:49;46.97;;;31.95;;
21162;SDS011;10739;52.198;20.908;2024-03-02T14:19:15;49.60;;;32.05;;
21162;SDS011;10739;52.198;20.908;2024-03-02T14:21:42;48.13;;;31.00;;
21162;SDS011;10739;52.198;20.908;2024-03-02T14:24:09;47.38;;;31.17;;
21162;SDS011;10739;52.198;20.908;2024-03-02T14:26:36;50.40;;;30.85;;